Time;durP1;ratioP1;P1;durP2;ratioP2;P2;SDS_P1;SDS_P2;PMS_P1;PMS_P2;Temp;Humidity;BMP_temperature;BMP_pressure;BME280_temperature;BME280_humidity;BME280_pressure;Samples;Min_cycle;Max_cycle;Signal;HPM_P1;HPM_P2
2021/04/04 00:02:04;;;;;;;5.40;2.77;;;;;;;0.24;70.69;101750.38;5094657;28;20647;-69
2021/04/04 00:04:30;;;;;;;5.03;2.90;;;;;;;0.26;71.31;101750.38;5094713;28;20247;-70
2021/04/04 00:06:55;;;;;;;3.77;2.43;;;;;;;0.17;72.87;101745.97;5093984;28;20280;-69
2021/04/04 00:09:20;;;;;;;3.33;2.63;;;;;;;0.12;72.98;101747.72;5093074;28;20194;-70
2021/04/04 00:11:47;;;;;;;5.17;2.90;;;;;;;0.04;73.15;101749.44;5093545;28;20202;-69
2021/04/04 00:14:12;;;;;;;7.57;2.90;;;;;;;0.01;72.36;101753.78;5091942;28;20198;-70
2021/04/04 00:16:38;;;;;;;4.43;2.67;;;;;;;-0.01;71.66;101753.75;5093764;28;20269;-70
2021/04/04 00:19:04;;;;;;;4.37;2.80;;;;;;;0.01;71.71;101751.16;5097016;28;20182;-69
2021/04/04 00:21:29;;;;;;;4.97;2.67;;;;;;;-0.02;70.88;101762.50;5095913;28;20166;-69
2021/04/04 00:23:55;;;;;;;4.70;2.37;;;;;;;0.03;71.90;101762.56;5096291;28;20174;-69
2021/04/04 00:26:20;;;;;;;3.50;2.50;;;;;;;-0.04;72.53;101764.22;5097677;28;20654;-69
2021/04/04 00:28:45;;;;;;;5.83;2.70;;;;;;;-0.09;71.61;101760.72;5097305;28;20241;-70
2021/04/04 00:31:11;;;;;;;5.47;3.03;;;;;;;-0.05;71.56;101760.72;5097351;28;20228;-69
2021/04/04 00:33:36;;;;;;;4.50;2.70;;;;;;;-0.09;71.73;101755.47;5098155;28;20218;-70
2021/04/04 00:36:02;;;;;;;5.20;2.63;;;;;;;-0.08;71.80;101755.47;5096143;28;20250;-69
2021/04/04 00:38:27;;;;;;;2.90;2.30;;;;;;;-0.09;72.08;101753.72;5096883;28;20163;-70
2021/04/04 00:40:52;;;;;;;5.77;3.00;;;;;;;-0.11;72.63;101750.22;5095992;28;20174;-70
2021/04/04 00:43:18;;;;;;;3.73;2.40;;;;;;;-0.19;73.30;101745.78;5096918;28;20583;-70
2021/04/04 00:45:43;;;;;;;4.43;2.80;;;;;;;-0.22;73.75;101749.28;5096511;28;20177;-70
2021/04/04 00:48:09;;;;;;;4.67;3.10;;;;;;;-0.21;72.98;101744.91;5097519;28;20201;-70
2021/04/04 00:50:37;;;;;;;5.70;2.60;;;;;;;-0.16;73.23;101743.19;5095325;28;20531;-70
2021/04/04 00:53:04;;;;;;;3.67;2.53;;;;;;;-0.13;72.66;101740.56;5096725;28;20178;-70
2021/04/04 00:55:29;;;;;;;5.77;2.47;;;;;;;-0.12;72.36;101743.22;5078695;28;20171;-71
2021/04/04 00:57:55;;;;;;;4.97;2.70;;;;;;;-0.09;72.55;101742.34;5097353;28;20648;-69
2021/04/04 01:00:22;;;;;;;4.37;2.63;;;;;;;-0.06;73.01;101743.22;5097595;28;20198;-69
2021/04/04 01:02:50;;;;;;;4.47;2.60;;;;;;;-0.08;74.20;101738.84;5097867;28;20162;-69
2021/04/04 01:05:19;;;;;;;3.43;2.40;;;;;;;-0.13;73.61;101737.94;5097314;28;20174;-69
2021/04/04 01:07:47;;;;;;;7.67;2.80;;;;;;;-0.19;74.42;101743.19;5095418;28;20270;-69
2021/04/04 01:10:13;;;;;;;5.40;2.63;;;;;;;-0.31;75.28;101736.13;5095335;28;20194;-69
2021/04/04 01:12:53;;;;;;;3.60;2.70;;;;;;;-0.39;75.29;101743.91;5095127;28;20283;-69
2021/04/04 01:15:24;;;;;;;5.47;2.90;;;;;;;-0.42;75.52;101738.66;5095347;28;20154;-69
2021/04/04 01:17:52;;;;;;;4.73;2.57;;;;;;;-0.39;73.83;101745.66;5095242;28;20292;-69
2021/04/04 01:20:29;;;;;;;3.83;2.10;;;;;;;-0.23;71.53;101738.78;5094829;28;20194;-68
2021/04/04 01:22:57;;;;;;;3.40;2.40;;;;;;;-0.16;72.66;101735.31;5094793;28;20170;-70
2021/04/04 01:25:42;;;;;;;3.87;2.43;;;;;;;-0.16;71.61;101736.19;5096178;28;20531;-69
2021/04/04 01:28:19;;;;;;;6.03;2.23;;;;;;;-0.11;72.16;101736.22;5096976;28;20198;-69
2021/04/04 01:30:47;;;;;;;2.97;2.20;;;;;;;-0.13;71.77;101736.22;5094773;28;20197;-69
2021/04/04 01:33:14;;;;;;;3.53;2.40;;;;;;;-0.13;72.91;101735.31;5096203;28;20181;-69
2021/04/04 01:35:45;;;;;;;5.47;2.50;;;;;;;-0.15;73.59;101726.56;5095817;28;20166;-70
2021/04/04 01:38:13;;;;;;;3.13;2.03;;;;;;;-0.15;71.79;101722.19;5095799;28;20159;-69
2021/04/04 01:40:40;;;;;;;3.60;2.40;;;;;;;-0.13;72.64;101725.72;5094995;28;20186;-69
2021/04/04 01:43:06;;;;;;;3.87;2.30;;;;;;;-0.21;73.45;101721.31;5095561;28;20242;-71
2021/04/04 01:45:33;;;;;;;5.33;2.20;;;;;;;-0.21;72.59;101723.94;5095724;28;20170;-70
2021/04/04 01:47:59;;;;;;;4.87;2.30;;;;;;;-0.19;72.76;101719.56;5095712;28;20202;-70
2021/04/04 01:50:24;;;;;;;2.60;1.80;;;;;;;-0.16;72.68;101712.56;5093858;28;20565;-69
2021/04/04 01:52:50;;;;;;;5.10;2.13;;;;;;;-0.20;73.98;101713.44;5093973;28;20174;-69
2021/04/04 01:55:16;;;;;;;5.13;2.40;;;;;;;-0.29;74.20;101715.13;5094408;28;20180;-69
2021/04/04 01:57:42;;;;;;;6.43;2.80;;;;;;;-0.44;76.59;101714.16;5094160;28;20546;-69
2021/04/04 02:00:15;;;;;;;7.30;2.77;;;;;;;-0.50;76.61;101708.00;5095093;28;20662;-69
2021/04/04 02:02:48;;;;;;;4.00;2.43;;;;;;;-0.54;76.90;101709.72;5095157;28;20181;-69
2021/04/04 02:05:14;;;;;;;4.20;2.50;;;;;;;-0.55;76.84;101705.34;5094967;28;20253;-69
2021/04/04 02:07:42;;;;;;;4.20;2.07;;;;;;;-0.51;76.38;101707.13;5094747;28;20198;-69
2021/04/04 02:10:11;;;;;;;3.83;2.30;;;;;;;-0.52;76.53;101701.88;5094846;28;20211;-69
2021/04/04 02:12:37;;;;;;;4.10;2.40;;;;;;;-0.55;76.97;101702.75;5093604;28;20170;-69
2021/04/04 02:15:10;;;;;;;4.63;2.20;;;;;;;-0.56;76.42;101697.47;5093695;28;20170;-69
2021/04/04 02:17:36;;;;;;;2.80;2.10;;;;;;;-0.49;75.13;101705.38;5093263;28;20205;-70
2021/04/04 02:20:06;;;;;;;2.57;2.00;;;;;;;-0.38;74.24;101687.09;5094499;28;20566;-69
2021/04/04 02:22:33;;;;;;;5.17;2.07;;;;;;;-0.32;73.74;101698.50;5093467;28;20177;-70
2021/04/04 02:24:58;;;;;;;4.50;2.20;;;;;;;-0.42;75.12;101683.56;5093321;28;20181;-70
2021/04/04 02:27:24;;;;;;;3.90;2.30;;;;;;;-0.46;75.04;101678.31;5092895;28;20617;-70
2021/04/04 02:29:49;;;;;;;4.87;2.23;;;;;;;-0.55;75.48;101687.00;5094157;28;20277;-69
2021/04/04 02:32:15;;;;;;;5.37;2.13;;;;;;;-0.64;76.28;101681.72;5094490;28;20220;-70
2021/04/04 02:34:42;;;;;;;3.43;2.13;;;;;;;-0.73;76.96;101677.28;5093075;28;20170;-70
2021/04/04 02:37:12;;;;;;;2.90;2.10;;;;;;;-0.80;77.59;101678.09;5093090;28;20174;-69
2021/04/04 02:39:49;;;;;;;2.57;1.90;;;;;;;-0.85;77.87;101678.94;5093994;28;20212;-70
2021/04/04 02:42:18;;;;;;;3.50;2.57;;;;;;;-0.92;77.95;101678.00;5093152;28;20170;-69
2021/04/04 02:44:44;;;;;;;4.70;2.20;;;;;;;-0.90;78.66;101675.41;5094378;28;20170;-70
2021/04/04 02:47:12;;;;;;;5.07;2.20;;;;;;;-0.96;78.72;101671.88;5092729;28;20178;-70
2021/04/04 02:49:37;;;;;;;3.13;2.20;;;;;;;-1.02;78.96;101678.81;5093192;28;20198;-71
2021/04/04 02:52:06;;;;;;;2.83;2.50;;;;;;;-1.08;79.01;101669.16;5092994;28;20181;-70
2021/04/04 02:54:32;;;;;;;3.67;2.20;;;;;;;-1.06;78.56;101672.69;5094121;28;20162;-70
2021/04/04 02:56:58;;;;;;;2.80;1.80;;;;;;;-1.09;79.07;101677.88;5093088;28;20166;-70
2021/04/04 02:59:27;;;;;;;3.60;2.30;;;;;;;-1.07;78.83;101670.03;5092714;28;20178;-70
2021/04/04 03:01:54;;;;;;;4.87;2.20;;;;;;;-1.06;78.94;101667.44;5093823;28;20171;-70
2021/04/04 03:04:20;;;;;;;3.03;2.07;;;;;;;-0.99;78.07;101674.47;5093763;28;20634;-70
2021/04/04 03:06:45;;;;;;;2.07;1.50;;;;;;;-0.90;77.81;101673.66;5092624;28;20611;-70
2021/04/04 03:09:13;;;;;;;3.20;2.20;;;;;;;-0.81;77.00;101672.84;5094171;28;20201;-70
2021/04/04 03:11:39;;;;;;;3.87;2.37;;;;;;;-0.75;76.90;101672.88;5092876;28;20215;-70
2021/04/04 03:14:05;;;;;;;4.57;2.17;;;;;;;-0.66;76.35;101676.47;5092915;28;20162;-70
2021/04/04 03:16:33;;;;;;;3.00;1.90;;;;;;;-0.57;75.71;101669.50;5092397;28;20257;-70
2021/04/04 03:19:00;;;;;;;3.33;1.90;;;;;;;-0.54;75.34;101662.53;5092391;28;20546;-70
2021/04/04 03:21:27;;;;;;;7.13;2.07;;;;;;;-0.54;75.44;101661.66;5093951;28;20282;-69
2021/04/04 03:23:52;;;;;;;4.10;2.20;;;;;;;-0.54;75.14;101659.91;5092576;28;20181;-69
2021/04/04 03:26:18;;;;;;;3.93;2.20;;;;;;;-0.53;75.74;101645.06;5094526;28;20514;-69
2021/04/04 03:28:44;;;;;;;4.53;2.10;;;;;;;-0.52;75.33;101654.66;5092372;28;20234;-70
2021/04/04 03:31:14;;;;;;;2.83;1.63;;;;;;;-0.59;75.76;101656.38;5092554;28;20171;-70
2021/04/04 03:33:40;;;;;;;5.03;2.40;;;;;;;-0.59;75.81;101645.91;5094200;28;20169;-70
2021/04/04 03:36:06;;;;;;;2.17;1.97;;;;;;;-0.59;75.57;101647.66;5093833;28;20178;-70
2021/04/04 03:38:31;;;;;;;2.93;1.93;;;;;;;-0.59;75.36;101643.28;5092322;28;20306;-69
2021/04/04 03:40:56;;;;;;;2.67;1.90;;;;;;;-0.57;75.89;101643.28;5094743;28;20209;-69
2021/04/04 03:43:27;;;;;;;3.37;1.80;;;;;;;-0.63;76.42;101631.91;5094473;28;20265;-70
2021/04/04 03:45:57;;;;;;;4.83;1.90;;;;;;;-0.70;76.92;101632.75;5092655;28;20261;-69
2021/04/04 03:48:23;;;;;;;4.13;2.20;;;;;;;-0.73;77.74;101634.47;5093645;28;20189;-68
2021/04/04 03:50:48;;;;;;;3.70;2.23;;;;;;;-0.73;77.77;101637.09;5092821;28;20175;-70
2021/04/04 03:53:18;;;;;;;3.30;1.87;;;;;;;-0.74;78.04;101632.72;5097270;28;20188;-70
2021/04/04 03:55:43;;;;;;;2.17;1.50;;;;;;;-0.68;77.49;101636.25;5096738;28;20623;-69
2021/04/04 03:58:09;;;;;;;5.17;2.20;;;;;;;-0.69;77.83;101637.13;5079494;28;20170;-69
2021/04/04 04:00:35;;;;;;;3.03;2.00;;;;;;;-0.67;77.51;101634.50;5096249;28;20182;-68
2021/04/04 04:03:02;;;;;;;7.17;2.20;;;;;;;-0.73;78.03;101642.34;5096713;28;20166;-70
2021/04/04 04:05:28;;;;;;;3.60;1.90;;;;;;;-0.70;77.75;101637.09;5096860;28;20253;-70
2021/04/04 04:07:54;;;;;;;5.73;2.20;;;;;;;-0.60;76.96;101638.91;5096597;28;20558;-70
2021/04/04 04:10:19;;;;;;;4.80;2.60;;;;;;;-0.58;77.52;101634.53;5095964;28;20186;-70
2021/04/04 04:12:46;;;;;;;3.40;2.20;;;;;;;-0.63;77.66;101628.41;5097089;28;20170;-70
2021/04/04 04:15:14;;;;;;;4.23;2.37;;;;;;;-0.63;77.79;101625.78;5096326;28;20650;-70
2021/04/04 04:17:40;;;;;;;2.90;2.20;;;;;;;-0.66;78.55;101625.75;5099694;28;20196;-70
2021/04/04 04:20:07;;;;;;;4.70;2.17;;;;;;;-0.71;78.19;101627.50;5097184;28;20252;-69
2021/04/04 04:22:32;;;;;;;3.33;2.30;;;;;;;-0.76;78.56;101614.31;5097295;28;20173;-69
2021/04/04 04:24:58;;;;;;;3.90;2.33;;;;;;;-0.83;79.07;101619.53;5098177;28;20174;-69
2021/04/04 04:27:24;;;;;;;5.40;3.10;;;;;;;-0.84;79.25;101621.28;5096679;28;20209;-69
2021/04/04 04:29:50;;;;;;;5.20;2.57;;;;;;;-0.75;79.12;101620.44;5097637;28;20251;-69
2021/04/04 04:32:20;;;;;;;3.43;2.03;;;;;;;-0.70;78.60;101617.00;5097285;28;20658;-70
2021/04/04 04:34:46;;;;;;;4.43;2.40;;;;;;;-0.65;78.07;101617.91;5079182;28;20177;-70
2021/04/04 04:37:12;;;;;;;7.07;2.53;;;;;;;-0.73;78.63;101614.38;5097127;28;20178;-69
2021/04/04 04:39:38;;;;;;;4.00;2.20;;;;;;;-0.70;79.11;101622.25;5095588;28;20193;-69
2021/04/04 04:42:03;;;;;;;3.90;2.33;;;;;;;-0.67;79.14;101614.41;5095437;28;20664;-70
2021/04/04 04:44:29;;;;;;;4.47;2.40;;;;;;;-0.57;78.63;101612.69;5095331;28;20628;-70
2021/04/04 04:46:55;;;;;;;4.47;2.27;;;;;;;-0.54;78.51;101610.09;5096436;28;20196;-70
2021/04/04 04:49:21;;;;;;;6.10;2.73;;;;;;;-0.54;78.94;101596.97;5078261;28;20260;-69
2021/04/04 04:51:47;;;;;;;4.40;2.20;;;;;;;-0.50;78.50;101605.72;5096249;28;20174;-70
2021/04/04 04:54:12;;;;;;;4.03;2.60;;;;;;;-0.49;78.31;101589.13;5096660;28;20170;-70
2021/04/04 04:56:39;;;;;;;3.10;2.10;;;;;;;-0.54;78.92;101594.34;5096485;28;20170;-70
2021/04/04 04:59:06;;;;;;;5.80;2.60;;;;;;;-0.60;79.41;101590.81;5095037;28;20232;-69
2021/04/04 05:01:37;;;;;;;5.40;2.40;;;;;;;-0.52;79.44;101584.75;5096425;28;20193;-69
2021/04/04 05:04:03;;;;;;;4.67;2.30;;;;;;;-0.41;78.49;101587.41;5095885;28;20246;-70
2021/04/04 05:06:29;;;;;;;4.03;2.10;;;;;;;-0.33;78.41;101594.47;5094723;28;20185;-70
2021/04/04 05:08:54;;;;;;;4.27;2.50;;;;;;;-0.34;78.33;101584.84;5077368;28;20294;-70
2021/04/04 05:11:20;;;;;;;4.87;2.73;;;;;;;-0.27;78.47;101588.34;5094853;28;20170;-70
2021/04/04 05:13:46;;;;;;;3.47;2.00;;;;;;;-0.30;78.44;101593.59;5094336;28;20523;-69
2021/04/04 05:16:13;;;;;;;6.10;2.73;;;;;;;-0.27;78.63;101587.47;5094410;28;20219;-70
2021/04/04 05:18:51;;;;;;;9.67;2.40;;;;;;;-0.25;78.08;101583.09;5094305;28;20162;-70
2021/04/04 05:21:25;;;;;;;7.40;2.50;;;;;;;-0.18;78.19;101583.13;5094539;28;20190;-70
2021/04/04 05:23:57;;;;;;;4.73;2.80;;;;;;;-0.07;78.20;101583.16;5095739;28;20171;-69
2021/04/04 05:26:25;;;;;;;3.33;2.23;;;;;;;-0.07;77.87;101586.66;5095654;28;20611;-70
2021/04/04 05:28:52;;;;;;;6.63;2.50;;;;;;;-0.04;77.58;101591.91;5095572;28;20244;-71
2021/04/04 05:31:17;;;;;;;5.07;2.63;;;;;;;-0.07;77.77;101583.16;5095738;28;20550;-70
2021/04/04 05:33:42;;;;;;;3.77;2.77;;;;;;;0.01;77.91;101581.44;5094285;28;20179;-70
2021/04/04 05:36:08;;;;;;;3.97;2.80;;;;;;;0.06;77.87;101584.94;5095176;28;20182;-70
2021/04/04 05:38:33;;;;;;;3.47;2.47;;;;;;;0.21;76.87;101582.34;5093950;28;20162;-70
2021/04/04 05:41:01;;;;;;;4.50;2.80;;;;;;;0.16;76.95;101573.56;5095306;28;20269;-70
2021/04/04 05:43:33;;;;;;;3.97;2.13;;;;;;;0.36;76.18;101578.84;5095100;28;20672;-71
2021/04/04 05:46:06;;;;;;;6.17;2.93;;;;;;;0.45;76.23;101573.59;5094214;28;20184;-70
2021/04/04 05:48:41;;;;;;;5.33;2.80;;;;;;;0.50;75.95;101565.72;5094215;28;20190;-69
2021/04/04 05:51:44;;;;;;;3.80;2.90;;;;;;;0.44;75.65;101569.22;5094133;28;20165;-70
2021/04/04 05:54:28;;;;;;;6.30;2.63;;;;;;;0.47;76.22;101563.09;5095758;28;20195;-70
2021/04/04 05:56:57;;;;;;;5.33;2.87;;;;;;;0.75;74.88;101551.72;5094624;28;20162;-70
2021/04/04 05:59:43;;;;;;;4.60;2.77;;;;;;;1.01;73.54;101550.75;5077099;28;20193;-70
2021/04/04 06:02:32;;;;;;;5.93;2.70;;;;;;;0.87;73.48;101556.06;5094249;28;20208;-70
2021/04/04 06:05:01;;;;;;;4.40;2.63;;;;;;;1.00;73.29;101556.91;5077366;28;20263;-70
2021/04/04 06:07:53;;;;;;;4.73;2.73;;;;;;;0.87;73.68;101546.44;5094434;28;20168;-70
2021/04/04 06:10:26;;;;;;;3.67;2.57;;;;;;;1.07;73.06;101545.47;5047741;28;20211;-70
2021/04/04 06:12:59;;;;;;;5.63;2.60;;;;;;;1.25;73.00;101543.69;5094137;28;20176;-70
2021/04/04 06:15:38;;;;;;;4.03;2.40;;;;;;;1.41;71.80;101539.25;5093672;28;20167;-70
2021/04/04 06:18:19;;;;;;;7.43;2.50;;;;;;;1.55;70.99;101542.69;5094155;28;20188;-71
2021/04/04 06:20:49;;;;;;;6.07;2.57;;;;;;;1.54;70.82;101543.59;5093777;28;20213;-69
2021/04/04 06:23:36;;;;;;;8.03;2.80;;;;;;;1.71;69.85;101543.47;5093443;28;20183;-70
2021/04/04 06:26:07;;;;;;;5.70;3.07;;;;;;;1.84;68.59;101544.28;5095086;28;20164;-70
2021/04/04 06:28:39;;;;;;;8.27;3.20;;;;;;;1.94;68.15;101532.84;5094197;28;20211;-70
2021/04/04 06:31:16;;;;;;;5.87;2.90;;;;;;;1.87;68.55;101541.66;5093422;28;20157;-69
2021/04/04 06:33:45;;;;;;;6.13;2.77;;;;;;;2.01;68.25;101537.16;5093817;28;20194;-70
2021/04/04 06:36:34;;;;;;;5.43;2.90;;;;;;;2.09;67.65;101538.00;5094938;28;20167;-70
2021/04/04 06:39:25;;;;;;;5.33;2.70;;;;;;;2.16;67.52;101534.41;5093531;28;20184;-69
2021/04/04 06:41:51;;;;;;;4.53;3.10;;;;;;;2.18;67.91;101534.41;5093655;28;20613;-68
2021/04/04 06:44:44;;;;;;;8.70;3.50;;;;;;;2.21;67.81;101531.75;5094530;28;20172;-68
2021/04/04 06:47:20;;;;;;;5.73;2.87;;;;;;;2.21;68.00;101529.13;5093530;28;20237;-69
2021/04/04 06:50:04;;;;;;;6.50;3.57;;;;;;;2.34;67.65;101524.66;5093773;28;20307;-69
2021/04/04 06:52:51;;;;;;;4.93;3.67;;;;;;;2.36;67.63;101526.38;5094433;28;20161;-69
2021/04/04 06:55:38;;;;;;;4.70;3.13;;;;;;;2.56;67.67;101535.84;5092955;28;20171;-69
2021/04/04 06:58:41;;;;;;;9.53;5.10;;;;;;;2.62;67.73;101536.72;5094377;28;20148;-69
2021/04/04 07:01:36;;;;;;;14.77;6.77;;;;;;;2.81;67.90;101521.56;5094226;28;20168;-70
2021/04/04 07:04:07;;;;;;;14.53;7.70;;;;;;;2.88;68.09;101512.69;5095965;28;20256;-69
2021/04/04 07:07:08;;;;;;;16.97;8.57;;;;;;;2.92;68.01;101518.81;5096699;28;20626;-70
2021/04/04 07:10:05;;;;;;;17.40;8.17;;;;;;;2.99;68.48;101515.25;5091970;28;20232;-69
2021/04/04 07:12:44;;;;;;;19.80;7.87;;;;;;;3.08;68.50;101516.00;5065073;28;20204;-70
2021/04/04 07:15:43;;;;;;;14.67;7.53;;;;;;;3.01;68.96;101509.06;5095035;28;20165;-70
2021/04/04 07:18:36;;;;;;;17.53;9.10;;;;;;;3.05;69.56;101507.25;5095366;28;20162;-69
2021/04/04 07:21:12;;;;;;;19.37;9.40;;;;;;;3.25;69.14;101507.00;5095557;28;20199;-68
2021/04/04 07:24:08;;;;;;;16.97;8.83;;;;;;;3.41;69.12;101509.47;5095828;28;20161;-70
2021/04/04 07:26:40;;;;;;;17.60;9.27;;;;;;;3.53;68.73;101511.06;5095746;28;20166;-70
2021/04/04 07:29:18;;;;;;;16.70;9.60;;;;;;;3.56;69.20;101511.00;5094642;28;20760;-70
2021/04/04 07:31:48;;;;;;;28.80;12.10;;;;;;;3.78;69.30;101508.97;5094100;28;20633;-69
2021/04/04 07:34:17;;;;;;;21.07;11.57;;;;;;;3.87;69.85;101516.75;5094316;28;20170;-69
2021/04/04 07:37:05;;;;;;;23.13;11.07;;;;;;;4.11;69.15;101510.25;5092197;28;20511;-69
2021/04/04 07:39:53;;;;;;;30.67;13.00;;;;;;;4.19;69.11;101504.81;5091540;28;20189;-69
2021/04/04 07:42:23;;;;;;;26.97;14.17;;;;;;;4.46;69.08;101499.09;5091414;28;20622;-70
2021/04/04 07:45:02;;;;;;;29.63;15.00;;;;;;;4.70;67.86;101503.94;5091717;28;20158;-69
2021/04/04 07:47:44;;;;;;;28.93;14.60;;;;;;;4.70;68.08;101500.41;5091751;28;20165;-70
2021/04/04 07:50:10;;;;;;;34.30;16.20;;;;;;;4.80;67.21;101506.41;5091560;28;20740;-69
2021/04/04 07:52:55;;;;;;;29.87;13.87;;;;;;;4.59;67.87;101516.47;5091579;28;20596;-69
2021/04/04 07:55:37;;;;;;;31.70;14.00;;;;;;;4.63;66.85;101507.59;5092047;28;20166;-69
2021/04/04 07:58:25;;;;;;;23.93;13.60;;;;;;;4.62;66.95;101504.97;5091715;28;20166;-68
2021/04/04 08:01:01;;;;;;;27.50;13.13;;;;;;;4.67;66.66;101482.84;5091824;28;20182;-70
2021/04/04 08:03:37;;;;;;;27.90;14.53;;;;;;;4.53;67.88;101479.56;5091943;28;20178;-70
2021/04/04 08:06:08;;;;;;;31.73;16.10;;;;;;;4.63;68.53;101496.13;5092793;28;20511;-70
2021/04/04 08:08:39;;;;;;;30.87;14.20;;;;;;;4.61;68.02;101487.38;5091646;28;20514;-69
2021/04/04 08:11:16;;;;;;;31.97;15.20;;;;;;;4.58;68.60;101488.28;5091647;28;20166;-69
2021/04/04 08:13:51;;;;;;;30.03;15.63;;;;;;;4.61;68.69;101493.53;5091811;28;20247;-70
2021/04/04 08:16:21;;;;;;;31.47;15.60;;;;;;;4.79;68.48;101480.84;5093151;28;20161;-70
2021/04/04 08:18:47;;;;;;;37.07;18.27;;;;;;;4.88;68.40;101483.34;5092733;28;20189;-70
2021/04/04 08:21:21;;;;;;;31.57;16.77;;;;;;;4.93;67.89;101470.91;5091431;28;20542;-70
2021/04/04 08:23:56;;;;;;;29.67;14.93;;;;;;;4.92;68.17;101477.09;5091306;28;20539;-70
2021/04/04 08:26:29;;;;;;;32.80;15.70;;;;;;;5.05;68.25;101475.94;5091280;28;20699;-70
2021/04/04 08:29:02;;;;;;;36.30;15.93;;;;;;;5.07;67.72;101475.91;5092246;28;20221;-69
2021/04/04 08:31:28;;;;;;;31.03;14.83;;;;;;;5.24;67.23;101466.75;5091451;28;20202;-70
2021/04/04 08:34:02;;;;;;;22.53;14.27;;;;;;;5.38;67.07;101478.78;5092710;28;20173;-70
2021/04/04 08:36:31;;;;;;;28.03;15.23;;;;;;;5.49;66.93;101476.78;5092543;28;20158;-70
2021/04/04 08:38:57;;;;;;;36.53;16.97;;;;;;;5.74;66.70;101466.53;5093887;28;20708;-70
2021/04/04 08:41:24;;;;;;;24.70;13.77;;;;;;;5.99;63.65;101466.88;5095230;28;20177;-70
2021/04/04 08:43:57;;;;;;;29.23;14.67;;;;;;;5.98;64.04;101451.88;5095921;28;20193;-69
2021/04/04 08:46:46;;;;;;;29.17;14.20;;;;;;;6.12;63.98;101460.34;5095211;28;20151;-70
2021/04/04 08:49:12;;;;;;;28.50;13.77;;;;;;;6.13;63.45;101465.63;5094599;28;20209;-70
2021/04/04 08:51:41;;;;;;;29.03;13.70;;;;;;;6.13;62.57;101468.25;5095066;28;20236;-70
2021/04/04 08:54:20;;;;;;;23.67;11.30;;;;;;;6.02;62.61;101457.06;5095786;28;20181;-70
2021/04/04 08:56:46;;;;;;;25.60;12.57;;;;;;;6.15;62.70;101445.25;5096267;28;20159;-70
2021/04/04 08:59:13;;;;;;;26.67;12.17;;;;;;;6.26;62.07;101447.63;5096255;28;20658;-70
2021/04/04 09:01:39;;;;;;;26.40;12.43;;;;;;;6.30;62.26;101443.97;5095645;28;20181;-71
2021/04/04 09:04:07;;;;;;;17.70;10.47;;;;;;;6.32;61.19;101446.59;5095989;28;20635;-71
2021/04/04 09:06:41;;;;;;;24.07;11.10;;;;;;;6.27;61.79;101442.28;5095378;28;20166;-70
2021/04/04 09:09:21;;;;;;;25.40;10.80;;;;;;;6.39;59.96;101458.81;5096253;28;20243;-70
2021/04/04 09:11:49;;;;;;;21.80;10.77;;;;;;;6.35;60.17;101435.94;5094844;28;20177;-71
2021/04/04 09:14:17;;;;;;;24.63;10.60;;;;;;;6.51;60.27;101437.25;5095678;28;20170;-71
2021/04/04 09:16:51;;;;;;;18.33;10.00;;;;;;;6.68;60.35;101442.97;5095662;28;20181;-71
2021/04/04 09:19:34;;;;;;;23.40;10.27;;;;;;;6.88;58.20;101453.03;5095616;28;20193;-70
2021/04/04 09:22:03;;;;;;;23.67;9.90;;;;;;;6.85;58.64;101459.31;5096129;28;20186;-70
2021/04/04 09:24:30;;;;;;;23.93;11.13;;;;;;;6.92;58.53;101449.38;5095404;28;20653;-71
2021/04/04 09:26:56;;;;;;;19.60;8.87;;;;;;;6.98;58.55;101454.53;5094557;28;20612;-70
2021/04/04 09:29:23;;;;;;;18.47;9.53;;;;;;;6.99;56.85;101461.56;5095699;28;20312;-71
2021/04/04 09:31:50;;;;;;;22.47;10.63;;;;;;;6.98;58.34;101445.69;5094562;28;20178;-71
2021/04/04 09:34:17;;;;;;;19.97;10.47;;;;;;;7.03;58.82;101451.72;5095575;28;20198;-71
2021/04/04 09:36:49;;;;;;;20.27;9.17;;;;;;;7.19;58.24;101447.75;5094270;28;20227;-70
2021/04/04 09:39:17;;;;;;;19.03;9.37;;;;;;;7.43;57.25;101448.78;5093806;28;20229;-70
2021/04/04 09:41:43;;;;;;;20.23;9.20;;;;;;;7.55;57.08;101443.13;5094556;28;20520;-71
2021/04/04 09:44:08;;;;;;;19.67;9.03;;;;;;;7.74;56.76;101446.06;5093870;28;20201;-69
2021/04/04 09:46:52;;;;;;;25.70;10.67;;;;;;;8.14;56.90;101441.19;5094412;28;20180;-69
2021/04/04 09:49:37;;;;;;;23.73;9.80;;;;;;;8.54;54.67;101425.69;5095264;28;20213;-71
2021/04/04 09:52:28;;;;;;;16.53;8.07;;;;;;;8.56;53.64;101418.56;5095225;28;20184;-70
2021/04/04 09:55:00;;;;;;;16.67;6.90;;;;;;;8.53;53.09;101442.59;5093718;28;20241;-70
2021/04/04 09:57:25;;;;;;;15.73;7.03;;;;;;;8.34;53.25;101432.59;5095267;28;20166;-70
2021/04/04 09:59:51;;;;;;;16.07;6.87;;;;;;;8.29;54.12;101442.47;5094818;28;20204;-70
2021/04/04 10:02:30;;;;;;;22.43;8.93;;;;;;;8.30;53.16;101428.25;5094217;28;20233;-70
2021/04/04 10:04:55;;;;;;;12.60;6.53;;;;;;;8.15;53.68;101436.75;5095135;28;20188;-70
2021/04/04 10:07:33;;;;;;;20.23;6.77;;;;;;;8.35;54.07;101415.72;5093724;28;20177;-70
2021/04/04 10:10:00;;;;;;;14.50;6.23;;;;;;;8.29;54.12;101426.53;5093198;28;20200;-70
2021/04/04 10:12:25;;;;;;;20.17;7.73;;;;;;;8.66;53.21;101422.63;5094768;28;20178;-70
2021/04/04 10:15:04;;;;;;;19.67;8.03;;;;;;;8.76;53.13;101410.72;5094275;28;20188;-70
2021/04/04 10:17:30;;;;;;;15.27;6.80;;;;;;;8.38;53.30;101404.09;5093764;28;20168;-70
2021/04/04 10:19:57;;;;;;;18.40;7.73;;;;;;;8.62;53.17;101407.69;5094326;28;20626;-70
2021/04/04 10:22:22;;;;;;;17.63;8.20;;;;;;;8.69;53.12;101406.53;5094519;28;20177;-69
2021/04/04 10:24:48;;;;;;;17.10;6.80;;;;;;;7.79;55.49;101383.00;5099771;28;20169;-70
2021/04/04 10:27:22;;;;;;;18.53;8.00;;;;;;;8.67;52.98;101384.44;5097423;28;20762;-70
2021/04/04 10:29:49;;;;;;;19.40;7.23;;;;;;;8.98;53.06;101376.19;5094191;28;20200;-68
2021/04/04 10:32:24;;;;;;;14.07;6.83;;;;;;;9.60;51.96;101372.88;5093141;28;20535;-69
2021/04/04 10:34:49;;;;;;;15.17;6.93;;;;;;;9.36;51.39;101380.91;5094073;28;20188;-69
2021/04/04 10:37:28;;;;;;;19.17;6.30;;;;;;;9.73;51.70;101365.25;5094428;28;20189;-69
2021/04/04 10:40:04;;;;;;;15.30;6.37;;;;;;;10.20;49.43;101360.59;5076694;28;20549;-70
2021/04/04 10:42:30;;;;;;;14.83;5.93;;;;;;;10.02;50.45;101362.22;5095792;28;20512;-70
2021/04/04 10:45:16;;;;;;;14.30;5.73;;;;;;;9.97;49.81;101361.56;5092780;28;20194;-70
2021/04/04 10:47:43;;;;;;;15.57;5.70;;;;;;;9.87;49.49;101365.53;5100591;28;20205;-71
2021/04/04 10:50:11;;;;;;;10.80;4.60;;;;;;;9.22;50.16;101363.72;5095974;28;20731;-71
2021/04/04 10:52:39;;;;;;;12.17;5.30;;;;;;;9.20;51.40;101354.94;5092551;28;20174;-70
2021/04/04 10:55:05;;;;;;;10.77;4.83;;;;;;;9.34;49.70;101355.28;5093790;28;20530;-70
2021/04/04 10:57:32;;;;;;;16.80;4.60;;;;;;;9.46;49.64;101360.09;5092495;28;20239;-71
2021/04/04 10:59:58;;;;;;;11.50;5.17;;;;;;;9.57;48.48;101338.34;5093416;28;20310;-70
2021/04/04 11:02:24;;;;;;;12.87;4.33;;;;;;;9.90;47.43;101331.63;5076106;28;20185;-69
2021/04/04 11:04:49;;;;;;;8.13;4.27;;;;;;;10.78;45.07;101332.25;5093929;28;20174;-69
2021/04/04 11:07:16;;;;;;;16.40;4.47;;;;;;;10.11;46.60;101321.00;5093797;28;20612;-70
2021/04/04 11:09:41;;;;;;;8.83;3.87;;;;;;;9.41;48.97;101343.44;5095307;28;20209;-70
2021/04/04 11:12:08;;;;;;;13.30;4.93;;;;;;;9.76;48.15;101333.13;5094223;28;20177;-70
2021/04/04 11:14:34;;;;;;;14.63;4.73;;;;;;;9.33;48.72;101321.56;5095553;28;20225;-69
2021/04/04 11:17:01;;;;;;;9.90;3.27;;;;;;;8.97;48.04;101335.41;5092569;28;20185;-70
2021/04/04 11:19:27;;;;;;;12.60;4.27;;;;;;;9.19;48.22;101316.78;5092290;28;20228;-69
2021/04/04 11:21:54;;;;;;;10.10;3.20;;;;;;;10.55;45.31;101332.41;5092224;28;20268;-70
2021/04/04 11:24:19;;;;;;;10.43;3.83;;;;;;;10.83;44.55;101327.53;5093102;28;20305;-69
2021/04/04 11:26:49;;;;;;;12.13;3.20;;;;;;;9.97;45.04;101294.88;5093621;28;20658;-70
2021/04/04 11:29:24;;;;;;;8.83;3.10;;;;;;;12.15;42.28;101287.22;5093086;28;20221;-70
2021/04/04 11:31:51;;;;;;;8.43;2.60;;;;;;;13.70;37.92;101299.16;5092869;28;20157;-71
2021/04/04 11:34:40;;;;;;;12.30;3.40;;;;;;;13.81;36.27;101286.00;5094796;28;20178;-71
2021/04/04 11:37:12;;;;;;;10.70;3.10;;;;;;;11.48;41.34;101287.91;5098592;28;20177;-71
2021/04/04 11:39:38;;;;;;;7.57;3.07;;;;;;;11.30;42.73;101281.69;5093253;28;20693;-70
2021/04/04 11:42:04;;;;;;;9.90;3.10;;;;;;;10.84;43.19;101305.25;5091960;28;20178;-70